sensor_id;sensor_type;location;lat;lon;timestamp;temperature;humidity
27890;DHT22;15238;49.082;9.102;2022-09-09T00:00:15;15.20;99.90
27890;DHT22;15238;49.082;9.102;2022-09-09T00:02:20;15.20;99.90
27890;DHT22;15238;49.082;9.102;2022-09-09T00:04:32;15.20;99.90
27890;DHT22;15238;49.082;9.102;2022-09-09T00:06:45;15.20;99.90
27890;DHT22;15238;49.082;9.102;2022-09-09T00:08:58;15.20;99.90
27890;DHT22;15238;49.082;9.102;2022-09-09T00:11:03;15.30;99.90
27890;DHT22;15238;49.082;9.102;2022-09-09T00:20:03;15.40;99.90
27890;DHT22;15238;49.082;9.102;2022-09-09T00:25:08;15.50;99.90
27890;DHT22;15238;49.082;9.102;2022-09-09T00:26:52;15.50;99.90
27890;DHT22;15238;49.082;9.102;2022-09-09T00:29:18;15.60;99.90
27890;DHT22;15238;49.082;9.102;2022-09-09T00:31:26;15.60;99.90
27890;DHT22;15238;49.082;9.102;2022-09-09T00:33:30;15.70;99.90
27890;DHT22;15238;49.082;9.102;2022-09-09T00:35:40;15.70;99.90
27890;DHT22;15238;49.082;9.102;2022-09-09T00:37:42;15.80;99.90
27890;DHT22;15238;49.082;9.102;2022-09-09T00:39:46;15.70;99.90
27890;DHT22;15238;49.082;9.102;2022-09-09T00:48:59;15.80;99.90
27890;DHT22;15238;49.082;9.102;2022-09-09T00:51:08;15.80;99.90
27890;DHT22;15238;49.082;9.102;2022-09-09T00:56:00;15.80;99.90
27890;DHT22;15238;49.082;9.102;2022-09-09T00:58:07;15.80;99.90
27890;DHT22;15238;49.082;9.102;2022-09-09T01:04:34;15.90;99.90
27890;DHT22;15238;49.082;9.102;2022-09-09T01:06:37;15.90;99.90
27890;DHT22;15238;49.082;9.102;2022-09-09T01:09:15;15.80;99.90
27890;DHT22;15238;49.082;9.102;2022-09-09T01:14:11;15.80;99.90
27890;DHT22;15238;49.082;9.102;2022-09-09T01:16:14;15.90;99.90
27890;DHT22;15238;49.082;9.102;2022-09-09T01:18:20;15.90;99.90
27890;DHT22;15238;49.082;9.102;2022-09-09T01:27:36;16.00;99.90
27890;DHT22;15238;49.082;9.102;2022-09-09T01:29:38;15.90;99.90
27890;DHT22;15238;49.082;9.102;2022-09-09T01:33:53;16.00;99.90
27890;DHT22;15238;49.082;9.102;2022-09-09T01:35:55;16.00;99.90
27890;DHT22;15238;49.082;9.102;2022-09-09T01:37:57;16.00;99.90
27890;DHT22;15238;49.082;9.102;2022-09-09T01:39:58;16.00;99.90
27890;DHT22;15238;49.082;9.102;2022-09-09T01:41:58;16.10;99.90
27890;DHT22;15238;49.082;9.102;2022-09-09T01:43:59;16.10;99.90
27890;DHT22;15238;49.082;9.102;2022-09-09T01:46:01;16.10;99.90
27890;DHT22;15238;49.082;9.102;2022-09-09T01:48:03;16.10;99.90
27890;DHT22;15238;49.082;9.102;2022-09-09T01:50:04;16.10;99.90
27890;DHT22;15238;49.082;9.102;2022-09-09T01:52:05;16.10;99.90
27890;DHT22;15238;49.082;9.102;2022-09-09T01:54:07;16.10;99.90
27890;DHT22;15238;49.082;9.102;2022-09-09T01:58:57;16.20;99.90
27890;DHT22;15238;49.082;9.102;2022-09-09T02:01:18;16.20;99.90
27890;DHT22;15238;49.082;9.102;2022-09-09T02:03:25;16.20;99.90
27890;DHT22;15238;49.082;9.102;2022-09-09T02:07:45;16.10;99.90
27890;DHT22;15238;49.082;9.102;2022-09-09T02:09:52;16.20;99.90
27890;DHT22;15238;49.082;9.102;2022-09-09T02:12:06;16.20;99.90
27890;DHT22;15238;49.082;9.102;2022-09-09T02:14:12;16.20;99.90
27890;DHT22;15238;49.082;9.102;2022-09-09T02:16:37;16.20;99.90
27890;DHT22;15238;49.082;9.102;2022-09-09T02:18:51;16.20;99.90
27890;DHT22;15238;49.082;9.102;2022-09-09T02:20:54;16.20;99.90
27890;DHT22;15238;49.082;9.102;2022-09-09T02:22:56;16.20;99.90
27890;DHT22;15238;49.082;9.102;2022-09-09T02:24:58;16.20;99.90
27890;DHT22;15238;49.082;9.102;2022-09-09T02:27:02;16.20;99.90
27890;DHT22;15238;49.082;9.102;2022-09-09T02:29:08;16.10;99.90
27890;DHT22;15238;49.082;9.102;2022-09-09T02:31:08;16.10;99.90
27890;DHT22;15238;49.082;9.102;2022-09-09T02:33:10;16.10;99.90
27890;DHT22;15238;49.082;9.102;2022-09-09T02:35:15;16.10;99.90
27890;DHT22;15238;49.082;9.102;2022-09-09T02:37:23;16.10;99.90
27890;DHT22;15238;49.082;9.102;2022-09-09T02:39:25;16.00;99.90
27890;DHT22;15238;49.082;9.102;2022-09-09T02:41:31;16.00;99.90
27890;DHT22;15238;49.082;9.102;2022-09-09T02:43:35;16.00;99.90
27890;DHT22;15238;49.082;9.102;2022-09-09T02:45:42;16.00;99.90
27890;DHT22;15238;49.082;9.102;2022-09-09T02:48:06;16.00;99.90
27890;DHT22;15238;49.082;9.102;2022-09-09T02:50:13;15.90;99.90
27890;DHT22;15238;49.082;9.102;2022-09-09T02:52:16;16.00;99.90
27890;DHT22;15238;49.082;9.102;2022-09-09T02:54:37;16.00;99.90
27890;DHT22;15238;49.082;9.102;2022-09-09T02:56:42;15.90;99.90
27890;DHT22;15238;49.082;9.102;2022-09-09T02:58:46;15.90;99.90
27890;DHT22;15238;49.082;9.102;2022-09-09T03:00:49;16.00;99.90
27890;DHT22;15238;49.082;9.102;2022-09-09T03:02:50;16.00;99.90
27890;DHT22;15238;49.082;9.102;2022-09-09T03:04:51;15.90;99.90
27890;DHT22;15238;49.082;9.102;2022-09-09T03:06:52;15.90;99.90
27890;DHT22;15238;49.082;9.102;2022-09-09T03:08:52;15.90;99.90
27890;DHT22;15238;49.082;9.102;2022-09-09T03:10:58;15.90;99.90
27890;DHT22;15238;49.082;9.102;2022-09-09T03:13:01;15.90;99.90
27890;DHT22;15238;49.082;9.102;2022-09-09T03:15:02;15.90;99.90
27890;DHT22;15238;49.082;9.102;2022-09-09T03:17:02;15.90;99.90
27890;DHT22;15238;49.082;9.102;2022-09-09T03:19:03;15.80;99.90
27890;DHT22;15238;49.082;9.102;2022-09-09T03:21:04;15.70;99.90
27890;DHT22;15238;49.082;9.102;2022-09-09T03:23:04;15.70;99.90
27890;DHT22;15238;49.082;9.102;2022-09-09T03:25:05;15.80;99.90
27890;DHT22;15238;49.082;9.102;2022-09-09T03:27:06;15.80;99.90
27890;DHT22;15238;49.082;9.102;2022-09-09T03:29:07;15.80;99.90
27890;DHT22;15238;49.082;9.102;2022-09-09T03:31:08;15.80;99.90
27890;DHT22;15238;49.082;9.102;2022-09-09T03:33:10;15.80;99.90
27890;DHT22;15238;49.082;9.102;2022-09-09T03:35:11;15.80;99.90
27890;DHT22;15238;49.082;9.102;2022-09-09T03:37:11;15.80;99.90
27890;DHT22;15238;49.082;9.102;2022-09-09T03:39:12;15.80;99.90
27890;DHT22;15238;49.082;9.102;2022-09-09T03:41:12;15.80;99.90
27890;DHT22;15238;49.082;9.102;2022-09-09T03:43:13;15.80;99.90
27890;DHT22;15238;49.082;9.102;2022-09-09T03:45:14;15.90;99.90
27890;DHT22;15238;49.082;9.102;2022-09-09T03:47:15;15.90;99.90
27890;DHT22;15238;49.082;9.102;2022-09-09T03:49:15;15.90;99.90
27890;DHT22;15238;49.082;9.102;2022-09-09T03:51:17;15.90;99.90
27890;DHT22;15238;49.082;9.102;2022-09-09T03:53:20;15.90;99.90
27890;DHT22;15238;49.082;9.102;2022-09-09T03:55:20;15.90;99.90
27890;DHT22;15238;49.082;9.102;2022-09-09T03:57:21;15.80;99.90
27890;DHT22;15238;49.082;9.102;2022-09-09T03:59:21;15.80;99.90
27890;DHT22;15238;49.082;9.102;2022-09-09T04:01:23;15.90;99.90
27890;DHT22;15238;49.082;9.102;2022-09-09T04:03:24;15.80;99.90
27890;DHT22;15238;49.082;9.102;2022-09-09T04:05:25;15.80;99.90
27890;DHT22;15238;49.082;9.102;2022-09-09T04:07:25;15.80;99.90
27890;DHT22;15238;49.082;9.102;2022-09-09T04:09:27;15.70;99.90
27890;DHT22;15238;49.082;9.102;2022-09-09T04:11:28;15.70;99.90
27890;DHT22;15238;49.082;9.102;2022-09-09T04:13:29;15.70;99.90
27890;DHT22;15238;49.082;9.102;2022-09-09T04:15:31;15.70;99.90
27890;DHT22;15238;49.082;9.102;2022-09-09T04:17:31;15.70;99.90
27890;DHT22;15238;49.082;9.102;2022-09-09T04:19:33;15.70;99.90
27890;DHT22;15238;49.082;9.102;2022-09-09T04:21:33;15.70;99.90
27890;DHT22;15238;49.082;9.102;2022-09-09T04:23:34;15.60;99.90
27890;DHT22;15238;49.082;9.102;2022-09-09T04:25:35;15.60;99.90
27890;DHT22;15238;49.082;9.102;2022-09-09T04:27:35;15.60;99.90
27890;DHT22;15238;49.082;9.102;2022-09-09T04:29:36;15.60;99.90
27890;DHT22;15238;49.082;9.102;2022-09-09T04:31:36;15.70;99.90
27890;DHT22;15238;49.082;9.102;2022-09-09T04:33:40;15.70;99.90
27890;DHT22;15238;49.082;9.102;2022-09-09T04:35:48;15.70;99.90
27890;DHT22;15238;49.082;9.102;2022-09-09T04:37:49;15.70;99.90
27890;DHT22;15238;49.082;9.102;2022-09-09T04:39:50;15.70;99.90
27890;DHT22;15238;49.082;9.102;2022-09-09T04:41:50;15.80;99.90
27890;DHT22;15238;49.082;9.102;2022-09-09T04:43:51;15.70;99.90
27890;DHT22;15238;49.082;9.102;2022-09-09T04:45:54;15.80;99.90
27890;DHT22;15238;49.082;9.102;2022-09-09T04:47:54;15.80;99.90
27890;DHT22;15238;49.082;9.102;2022-09-09T04:49:55;15.80;99.90
27890;DHT22;15238;49.082;9.102;2022-09-09T04:51:57;15.80;99.90
27890;DHT22;15238;49.082;9.102;2022-09-09T04:53:57;15.80;99.90
27890;DHT22;15238;49.082;9.102;2022-09-09T04:56:07;15.80;99.90
27890;DHT22;15238;49.082;9.102;2022-09-09T04:58:08;15.80;99.90
27890;DHT22;15238;49.082;9.102;2022-09-09T05:00:09;15.80;99.90
27890;DHT22;15238;49.082;9.102;2022-09-09T05:02:10;15.80;99.90
27890;DHT22;15238;49.082;9.102;2022-09-09T05:04:11;15.90;99.90
27890;DHT22;15238;49.082;9.102;2022-09-09T05:06:14;15.90;99.90
27890;DHT22;15238;49.082;9.102;2022-09-09T05:08:15;15.90;99.90
27890;DHT22;15238;49.082;9.102;2022-09-09T05:10:15;15.90;99.90
27890;DHT22;15238;49.082;9.102;2022-09-09T05:12:16;15.90;99.90
27890;DHT22;15238;49.082;9.102;2022-09-09T05:14:17;15.90;99.90
27890;DHT22;15238;49.082;9.102;2022-09-09T05:16:18;15.80;99.90
27890;DHT22;15238;49.082;9.102;2022-09-09T05:18:19;15.80;99.90
27890;DHT22;15238;49.082;9.102;2022-09-09T05:20:20;15.90;99.90
27890;DHT22;15238;49.082;9.102;2022-09-09T05:22:20;15.80;99.90
27890;DHT22;15238;49.082;9.102;2022-09-09T05:24:21;15.80;99.90
27890;DHT22;15238;49.082;9.102;2022-09-09T05:26:23;15.80;99.90
27890;DHT22;15238;49.082;9.102;2022-09-09T05:28:25;15.80;99.90
27890;DHT22;15238;49.082;9.102;2022-09-09T05:30:26;15.70;99.90
27890;DHT22;15238;49.082;9.102;2022-09-09T05:32:26;15.80;99.90
27890;DHT22;15238;49.082;9.102;2022-09-09T05:34:27;15.70;99.90
27890;DHT22;15238;49.082;9.102;2022-09-09T05:36:27;15.70;99.90
27890;DHT22;15238;49.082;9.102;2022-09-09T05:38:28;15.80;99.90
27890;DHT22;15238;49.082;9.102;2022-09-09T05:40:29;15.80;99.90
27890;DHT22;15238;49.082;9.102;2022-09-09T05:42:31;15.80;99.90
27890;DHT22;15238;49.082;9.102;2022-09-09T05:44:32;15.80;99.90
27890;DHT22;15238;49.082;9.102;2022-09-09T05:46:33;15.90;99.90
27890;DHT22;15238;49.082;9.102;2022-09-09T05:48:35;15.90;99.90
27890;DHT22;15238;49.082;9.102;2022-09-09T05:50:37;16.00;99.90
27890;DHT22;15238;49.082;9.102;2022-09-09T05:52:37;16.00;99.90
27890;DHT22;15238;49.082;9.102;2022-09-09T05:54:38;16.10;99.90
27890;DHT22;15238;49.082;9.102;2022-09-09T05:56:39;16.20;99.90
27890;DHT22;15238;49.082;9.102;2022-09-09T05:58:40;16.20;99.90
27890;DHT22;15238;49.082;9.102;2022-09-09T06:00:44;16.30;99.90
27890;DHT22;15238;49.082;9.102;2022-09-09T06:02:50;16.30;99.90
27890;DHT22;15238;49.082;9.102;2022-09-09T06:04:52;16.40;99.90
27890;DHT22;15238;49.082;9.102;2022-09-09T06:06:53;16.40;99.90
27890;DHT22;15238;49.082;9.102;2022-09-09T06:08:55;16.50;99.90
27890;DHT22;15238;49.082;9.102;2022-09-09T06:11:05;16.50;99.90
27890;DHT22;15238;49.082;9.102;2022-09-09T06:13:06;16.50;99.90
27890;DHT22;15238;49.082;9.102;2022-09-09T06:15:07;16.60;99.90
27890;DHT22;15238;49.082;9.102;2022-09-09T06:17:09;16.60;99.90
27890;DHT22;15238;49.082;9.102;2022-09-09T06:19:10;16.70;99.90
27890;DHT22;15238;49.082;9.102;2022-09-09T06:21:17;16.80;99.90
27890;DHT22;15238;49.082;9.102;2022-09-09T06:23:18;16.80;99.90
27890;DHT22;15238;49.082;9.102;2022-09-09T06:25:19;16.80;99.90
27890;DHT22;15238;49.082;9.102;2022-09-09T06:27:19;16.80;99.90
27890;DHT22;15238;49.082;9.102;2022-09-09T06:29:20;16.90;99.90
27890;DHT22;15238;49.082;9.102;2022-09-09T06:31:25;17.00;99.90
27890;DHT22;15238;49.082;9.102;2022-09-09T06:33:26;17.10;99.90
27890;DHT22;15238;49.082;9.102;2022-09-09T06:35:28;17.10;99.90
27890;DHT22;15238;49.082;9.102;2022-09-09T06:37:28;17.10;99.90
27890;DHT22;15238;49.082;9.102;2022-09-09T06:39:29;17.20;99.90
27890;DHT22;15238;49.082;9.102;2022-09-09T06:41:31;17.30;99.90
27890;DHT22;15238;49.082;9.102;2022-09-09T06:43:33;17.40;99.90
27890;DHT22;15238;49.082;9.102;2022-09-09T06:45:33;17.50;99.90
27890;DHT22;15238;49.082;9.102;2022-09-09T06:47:36;17.50;99.90
27890;DHT22;15238;49.082;9.102;2022-09-09T06:49:37;17.50;99.90
27890;DHT22;15238;49.082;9.102;2022-09-09T06:51:38;17.60;99.90
27890;DHT22;15238;49.082;9.102;2022-09-09T06:53:44;17.60;99.90
27890;DHT22;15238;49.082;9.102;2022-09-09T06:55:45;17.70;99.90
27890;DHT22;15238;49.082;9.102;2022-09-09T06:57:46;17.60;99.90
27890;DHT22;15238;49.082;9.102;2022-09-09T06:59:47;17.70;99.90
27890;DHT22;15238;49.082;9.102;2022-09-09T07:01:47;17.80;99.90
27890;DHT22;15238;49.082;9.102;2022-09-09T07:03:53;17.90;99.90
27890;DHT22;15238;49.082;9.102;2022-09-09T07:05:57;18.00;99.90
27890;DHT22;15238;49.082;9.102;2022-09-09T07:07:58;18.10;99.90
27890;DHT22;15238;49.082;9.102;2022-09-09T07:09:58;18.20;99.90
27890;DHT22;15238;49.082;9.102;2022-09-09T07:11:59;18.20;99.90
27890;DHT22;15238;49.082;9.102;2022-09-09T07:14:00;18.30;99.90
27890;DHT22;15238;49.082;9.102;2022-09-09T07:16:09;18.30;99.90
27890;DHT22;15238;49.082;9.102;2022-09-09T07:18:10;18.40;99.90
27890;DHT22;15238;49.082;9.102;2022-09-09T07:20:11;18.40;99.90
27890;DHT22;15238;49.082;9.102;2022-09-09T07:22:12;18.50;99.90
27890;DHT22;15238;49.082;9.102;2022-09-09T07:24:13;18.50;99.90
27890;DHT22;15238;49.082;9.102;2022-09-09T07:26:16;18.50;99.90
27890;DHT22;15238;49.082;9.102;2022-09-09T07:28:17;18.60;99.90
27890;DHT22;15238;49.082;9.102;2022-09-09T07:30:17;18.70;99.90
27890;DHT22;15238;49.082;9.102;2022-09-09T07:32:18;18.90;99.90
27890;DHT22;15238;49.082;9.102;2022-09-09T07:34:19;18.90;99.90
27890;DHT22;15238;49.082;9.102;2022-09-09T07:36:22;18.90;99.90
27890;DHT22;15238;49.082;9.102;2022-09-09T07:38:23;19.00;99.90
27890;DHT22;15238;49.082;9.102;2022-09-09T07:40:24;19.00;99.90
27890;DHT22;15238;49.082;9.102;2022-09-09T07:42:25;19.10;99.90
27890;DHT22;15238;49.082;9.102;2022-09-09T07:44:25;19.00;99.90
27890;DHT22;15238;49.082;9.102;2022-09-09T07:46:27;19.00;99.90
27890;DHT22;15238;49.082;9.102;2022-09-09T07:48:28;19.00;99.90
27890;DHT22;15238;49.082;9.102;2022-09-09T07:50:29;19.00;99.90
27890;DHT22;15238;49.082;9.102;2022-09-09T07:52:30;19.10;99.90
27890;DHT22;15238;49.082;9.102;2022-09-09T07:54:30;19.10;99.90
27890;DHT22;15238;49.082;9.102;2022-09-09T07:56:33;19.10;99.90
27890;DHT22;15238;49.082;9.102;2022-09-09T07:58:33;19.30;99.90
27890;DHT22;15238;49.082;9.102;2022-09-09T08:00:34;19.40;99.90
27890;DHT22;15238;49.082;9.102;2022-09-09T08:02:34;19.70;99.90
27890;DHT22;15238;49.082;9.102;2022-09-09T08:04:35;19.90;99.90
27890;DHT22;15238;49.082;9.102;2022-09-09T08:06:38;20.20;99.90
27890;DHT22;15238;49.082;9.102;2022-09-09T08:08:39;20.30;99.90
27890;DHT22;15238;49.082;9.102;2022-09-09T08:10:42;20.60;99.90
27890;DHT22;15238;49.082;9.102;2022-09-09T08:12:42;20.90;99.90
27890;DHT22;15238;49.082;9.102;2022-09-09T08:14:44;21.10;99.90
27890;DHT22;15238;49.082;9.102;2022-09-09T08:16:46;21.30;99.90
27890;DHT22;15238;49.082;9.102;2022-09-09T08:18:48;21.70;99.90
27890;DHT22;15238;49.082;9.102;2022-09-09T08:20:49;22.00;99.90
27890;DHT22;15238;49.082;9.102;2022-09-09T08:22:50;22.00;99.80
27890;DHT22;15238;49.082;9.102;2022-09-09T08:24:50;21.80;99.90
27890;DHT22;15238;49.082;9.102;2022-09-09T08:26:51;21.40;99.90
27890;DHT22;15238;49.082;9.102;2022-09-09T08:28:53;21.10;99.90
27890;DHT22;15238;49.082;9.102;2022-09-09T08:30:54;20.70;99.90
27890;DHT22;15238;49.082;9.102;2022-09-09T08:32:55;20.60;99.90
27890;DHT22;15238;49.082;9.102;2022-09-09T08:34:55;20.30;99.90
27890;DHT22;15238;49.082;9.102;2022-09-09T08:36:56;20.10;99.90
27890;DHT22;15238;49.082;9.102;2022-09-09T08:38:57;20.20;99.90
27890;DHT22;15238;49.082;9.102;2022-09-09T08:41:07;20.40;99.90
27890;DHT22;15238;49.082;9.102;2022-09-09T08:43:10;20.60;99.90
27890;DHT22;15238;49.082;9.102;2022-09-09T08:47:59;20.80;98.40
27890;DHT22;15238;49.082;9.102;2022-09-09T08:50:21;20.70;98.70
27890;DHT22;15238;49.082;9.102;2022-09-09T08:52:31;20.70;98.70
27890;DHT22;15238;49.082;9.102;2022-09-09T08:54:34;20.50;98.90
27890;DHT22;15238;49.082;9.102;2022-09-09T08:56:36;20.40;99.50
27890;DHT22;15238;49.082;9.102;2022-09-09T08:58:47;20.60;99.90
27890;DHT22;15238;49.082;9.102;2022-09-09T09:05:59;20.30;99.90
27890;DHT22;15238;49.082;9.102;2022-09-09T09:08:18;20.30;99.90
27890;DHT22;15238;49.082;9.102;2022-09-09T09:10:50;20.70;99.90
27890;DHT22;15238;49.082;9.102;2022-09-09T09:12:53;20.70;99.90
27890;DHT22;15238;49.082;9.102;2022-09-09T09:14:54;21.10;99.90
27890;DHT22;15238;49.082;9.102;2022-09-09T09:17:10;21.30;99.90
27890;DHT22;15238;49.082;9.102;2022-09-09T09:19:14;21.40;99.90
27890;DHT22;15238;49.082;9.102;2022-09-09T09:21:21;21.40;99.90
27890;DHT22;15238;49.082;9.102;2022-09-09T09:23:33;21.30;99.80
27890;DHT22;15238;49.082;9.102;2022-09-09T09:25:38;21.30;99.90
27890;DHT22;15238;49.082;9.102;2022-09-09T09:27:49;21.10;99.90
27890;DHT22;15238;49.082;9.102;2022-09-09T09:29:54;20.90;99.90
27890;DHT22;15238;49.082;9.102;2022-09-09T09:32:01;20.70;99.90
27890;DHT22;15238;49.082;9.102;2022-09-09T09:34:02;20.50;99.90
27890;DHT22;15238;49.082;9.102;2022-09-09T09:36:04;20.40;99.90
27890;DHT22;15238;49.082;9.102;2022-09-09T09:38:23;20.30;99.90
27890;DHT22;15238;49.082;9.102;2022-09-09T09:40:24;20.20;99.90
27890;DHT22;15238;49.082;9.102;2022-09-09T09:42:25;20.00;99.90
27890;DHT22;15238;49.082;9.102;2022-09-09T09:44:30;20.00;99.90
27890;DHT22;15238;49.082;9.102;2022-09-09T09:46:31;19.90;99.90
27890;DHT22;15238;49.082;9.102;2022-09-09T09:48:32;19.70;99.90
27890;DHT22;15238;49.082;9.102;2022-09-09T09:50:33;19.60;99.90
27890;DHT22;15238;49.082;9.102;2022-09-09T09:52:35;19.60;99.90
27890;DHT22;15238;49.082;9.102;2022-09-09T09:54:41;19.60;99.80
27890;DHT22;15238;49.082;9.102;2022-09-09T09:56:43;19.70;99.90
27890;DHT22;15238;49.082;9.102;2022-09-09T10:00:52;19.50;99.90
27890;DHT22;15238;49.082;9.102;2022-09-09T10:02:53;19.80;99.90
27890;DHT22;15238;49.082;9.102;2022-09-09T10:05:16;20.20;99.90
27890;DHT22;15238;49.082;9.102;2022-09-09T10:07:21;20.50;99.90
27890;DHT22;15238;49.082;9.102;2022-09-09T10:09:28;20.60;99.90
27890;DHT22;15238;49.082;9.102;2022-09-09T10:11:44;20.70;99.90
27890;DHT22;15238;49.082;9.102;2022-09-09T10:14:11;20.90;99.90
27890;DHT22;15238;49.082;9.102;2022-09-09T10:18:53;21.30;98.70
27890;DHT22;15238;49.082;9.102;2022-09-09T10:21:09;21.10;99.10
27890;DHT22;15238;49.082;9.102;2022-09-09T10:26:01;20.60;98.40
27890;DHT22;15238;49.082;9.102;2022-09-09T10:28:23;20.60;98.90
27890;DHT22;15238;49.082;9.102;2022-09-09T10:32:59;20.60;99.50
27890;DHT22;15238;49.082;9.102;2022-09-09T10:35:26;20.70;99.80
27890;DHT22;15238;49.082;9.102;2022-09-09T10:37:54;20.60;99.20
27890;DHT22;15238;49.082;9.102;2022-09-09T10:42:30;20.70;99.90
27890;DHT22;15238;49.082;9.102;2022-09-09T10:49:54;21.40;98.00
27890;DHT22;15238;49.082;9.102;2022-09-09T10:52:14;21.30;97.70
27890;DHT22;15238;49.082;9.102;2022-09-09T10:54:31;21.30;97.20
27890;DHT22;15238;49.082;9.102;2022-09-09T10:56:35;21.20;97.50
27890;DHT22;15238;49.082;9.102;2022-09-09T10:59:00;20.90;97.50
27890;DHT22;15238;49.082;9.102;2022-09-09T11:01:22;21.00;97.50
27890;DHT22;15238;49.082;9.102;2022-09-09T11:03:26;20.80;97.50
27890;DHT22;15238;49.082;9.102;2022-09-09T11:05:42;20.80;97.70
27890;DHT22;15238;49.082;9.102;2022-09-09T11:08:19;20.80;96.00
27890;DHT22;15238;49.082;9.102;2022-09-09T11:10:22;20.90;96.50
27890;DHT22;15238;49.082;9.102;2022-09-09T11:12:25;21.00;96.90
27890;DHT22;15238;49.082;9.102;2022-09-09T11:16:45;21.20;97.50
27890;DHT22;15238;49.082;9.102;2022-09-09T11:18:48;21.60;96.90
27890;DHT22;15238;49.082;9.102;2022-09-09T11:20:53;22.00;96.90
27890;DHT22;15238;49.082;9.102;2022-09-09T11:23:03;22.20;96.80
27890;DHT22;15238;49.082;9.102;2022-09-09T11:27:21;22.40;95.90
27890;DHT22;15238;49.082;9.102;2022-09-09T11:29:43;22.50;96.30
27890;DHT22;15238;49.082;9.102;2022-09-09T11:32:16;22.50;92.70
27890;DHT22;15238;49.082;9.102;2022-09-09T11:38:59;22.30;91.50
27890;DHT22;15238;49.082;9.102;2022-09-09T11:41:04;22.20;91.60
27890;DHT22;15238;49.082;9.102;2022-09-09T11:43:24;22.20;91.50
27890;DHT22;15238;49.082;9.102;2022-09-09T11:45:26;22.10;92.50
27890;DHT22;15238;49.082;9.102;2022-09-09T11:47:30;22.10;92.10
27890;DHT22;15238;49.082;9.102;2022-09-09T11:49:41;22.00;92.60
27890;DHT22;15238;49.082;9.102;2022-09-09T11:51:43;22.00;92.20
27890;DHT22;15238;49.082;9.102;2022-09-09T11:56:12;21.80;91.40
27890;DHT22;15238;49.082;9.102;2022-09-09T11:58:17;21.70;91.20
27890;DHT22;15238;49.082;9.102;2022-09-09T12:00:37;21.50;91.60
27890;DHT22;15238;49.082;9.102;2022-09-09T12:02:48;21.40;91.10
27890;DHT22;15238;49.082;9.102;2022-09-09T12:07:02;21.30;91.80
27890;DHT22;15238;49.082;9.102;2022-09-09T12:11:26;21.10;92.90
27890;DHT22;15238;49.082;9.102;2022-09-09T12:13:27;20.80;94.10
27890;DHT22;15238;49.082;9.102;2022-09-09T12:15:28;20.50;94.80
27890;DHT22;15238;49.082;9.102;2022-09-09T12:17:31;20.40;95.00
27890;DHT22;15238;49.082;9.102;2022-09-09T12:19:32;20.30;94.90
27890;DHT22;15238;49.082;9.102;2022-09-09T12:24:10;20.40;96.60
27890;DHT22;15238;49.082;9.102;2022-09-09T12:26:34;20.50;95.70
27890;DHT22;15238;49.082;9.102;2022-09-09T12:30:48;20.70;94.50
27890;DHT22;15238;49.082;9.102;2022-09-09T12:33:08;20.90;94.30
27890;DHT22;15238;49.082;9.102;2022-09-09T12:35:16;21.30;93.80
27890;DHT22;15238;49.082;9.102;2022-09-09T12:37:47;21.40;92.60
27890;DHT22;15238;49.082;9.102;2022-09-09T12:40:04;21.70;92.80
27890;DHT22;15238;49.082;9.102;2022-09-09T12:42:14;21.90;91.70
27890;DHT22;15238;49.082;9.102;2022-09-09T12:44:14;22.00;91.00
27890;DHT22;15238;49.082;9.102;2022-09-09T12:46:36;22.20;91.40
27890;DHT22;15238;49.082;9.102;2022-09-09T12:48:41;22.40;89.90
27890;DHT22;15238;49.082;9.102;2022-09-09T12:50:49;22.50;90.00
27890;DHT22;15238;49.082;9.102;2022-09-09T12:52:51;22.80;87.90
27890;DHT22;15238;49.082;9.102;2022-09-09T12:54:54;23.10;86.70
27890;DHT22;15238;49.082;9.102;2022-09-09T12:56:54;23.20;87.30
27890;DHT22;15238;49.082;9.102;2022-09-09T12:58:56;23.20;87.40
27890;DHT22;15238;49.082;9.102;2022-09-09T13:00:59;23.30;87.40
27890;DHT22;15238;49.082;9.102;2022-09-09T13:03:02;23.20;88.00
27890;DHT22;15238;49.082;9.102;2022-09-09T13:05:17;23.10;88.50
27890;DHT22;15238;49.082;9.102;2022-09-09T13:07:19;23.10;90.10
27890;DHT22;15238;49.082;9.102;2022-09-09T13:09:20;23.10;89.90
27890;DHT22;15238;49.082;9.102;2022-09-09T13:11:51;23.00;88.50
27890;DHT22;15238;49.082;9.102;2022-09-09T13:13:55;23.10;88.60
27890;DHT22;15238;49.082;9.102;2022-09-09T13:15:58;23.20;86.50
27890;DHT22;15238;49.082;9.102;2022-09-09T13:18:03;23.10;86.30
27890;DHT22;15238;49.082;9.102;2022-09-09T13:20:05;23.20;87.20
27890;DHT22;15238;49.082;9.102;2022-09-09T13:22:33;22.90;84.90
27890;DHT22;15238;49.082;9.102;2022-09-09T13:24:35;22.60;86.20
27890;DHT22;15238;49.082;9.102;2022-09-09T13:26:35;22.60;87.90
27890;DHT22;15238;49.082;9.102;2022-09-09T13:28:36;22.30;87.00
27890;DHT22;15238;49.082;9.102;2022-09-09T13:30:37;22.20;88.10
27890;DHT22;15238;49.082;9.102;2022-09-09T13:32:41;22.10;89.10
27890;DHT22;15238;49.082;9.102;2022-09-09T13:34:54;22.00;90.00
27890;DHT22;15238;49.082;9.102;2022-09-09T13:37:23;21.90;90.50
27890;DHT22;15238;49.082;9.102;2022-09-09T13:39:24;21.90;90.70
27890;DHT22;15238;49.082;9.102;2022-09-09T13:41:42;21.90;90.50
27890;DHT22;15238;49.082;9.102;2022-09-09T13:43:45;22.00;90.50
27890;DHT22;15238;49.082;9.102;2022-09-09T13:46:01;22.40;90.70
27890;DHT22;15238;49.082;9.102;2022-09-09T13:48:09;22.80;90.20
27890;DHT22;15238;49.082;9.102;2022-09-09T13:50:19;23.10;89.20
27890;DHT22;15238;49.082;9.102;2022-09-09T13:52:20;23.10;88.50
27890;DHT22;15238;49.082;9.102;2022-09-09T13:54:22;22.90;87.50
27890;DHT22;15238;49.082;9.102;2022-09-09T13:56:23;22.70;88.10
27890;DHT22;15238;49.082;9.102;2022-09-09T13:58:24;22.30;89.00
27890;DHT22;15238;49.082;9.102;2022-09-09T14:00:25;22.10;89.50
27890;DHT22;15238;49.082;9.102;2022-09-09T14:02:26;22.00;90.30
27890;DHT22;15238;49.082;9.102;2022-09-09T14:04:27;22.00;90.70
27890;DHT22;15238;49.082;9.102;2022-09-09T14:06:27;22.30;90.90
27890;DHT22;15238;49.082;9.102;2022-09-09T14:08:29;22.50;91.10
27890;DHT22;15238;49.082;9.102;2022-09-09T14:10:37;22.60;90.20
27890;DHT22;15238;49.082;9.102;2022-09-09T14:12:37;22.80;86.00
27890;DHT22;15238;49.082;9.102;2022-09-09T14:14:38;22.70;84.50
27890;DHT22;15238;49.082;9.102;2022-09-09T14:16:40;22.70;83.90
27890;DHT22;15238;49.082;9.102;2022-09-09T14:18:40;22.60;84.80
27890;DHT22;15238;49.082;9.102;2022-09-09T14:20:41;22.60;86.00
27890;DHT22;15238;49.082;9.102;2022-09-09T14:22:41;22.70;84.50
27890;DHT22;15238;49.082;9.102;2022-09-09T14:24:42;22.80;85.40
27890;DHT22;15238;49.082;9.102;2022-09-09T14:26:43;22.90;85.10
27890;DHT22;15238;49.082;9.102;2022-09-09T14:28:43;23.00;84.80
27890;DHT22;15238;49.082;9.102;2022-09-09T14:30:44;23.10;85.20
27890;DHT22;15238;49.082;9.102;2022-09-09T14:32:45;23.10;86.00
27890;DHT22;15238;49.082;9.102;2022-09-09T14:34:45;23.20;86.00